Time;durP1;ratioP1;P1;durP2;ratioP2;P2;SDS_P1;SDS_P2;PMS_P1;PMS_P2;Temp;Humidity;BMP_temperature;BMP_pressure;BME280_temperature;BME280_humidity;BME280_pressure;Samples;Min_cycle;Max_cycle;Signal;HPM_P1;HPM_P2
2024/01/04 00:01:20;;;;;;;5.97;0.60;;;7.60;99.90;;;;;;4946680;29;20123;-69
2024/01/04 00:03:46;;;;;;;5.30;0.80;;;7.40;99.90;;;;;;4948835;29;20031;-69
2024/01/04 00:06:11;;;;;;;4.85;0.73;;;7.20;99.90;;;;;;4952601;29;20093;-71
2024/01/04 00:08:37;;;;;;;7.32;1.30;;;7.10;99.90;;;;;;4948817;29;20439;-70
2024/01/04 00:11:04;;;;;;;2.10;0.50;;;7.10;99.90;;;;;;4945184;29;20031;-70
2024/01/04 00:13:30;;;;;;;10.63;1.08;;;7.00;99.90;;;;;;4950948;29;20032;-72
2024/01/04 00:15:55;;;;;;;3.90;0.43;;;6.90;99.90;;;;;;4954327;28;20499;-69
2024/01/04 00:18:21;;;;;;;4.53;1.25;;;6.80;99.90;;;;;;4973566;28;20035;-72
2024/01/04 00:20:47;;;;;;;5.82;0.80;;;6.70;99.90;;;;;;4962539;28;20039;-70
2024/01/04 00:23:13;;;;;;;5.07;0.70;;;6.60;99.90;;;;;;4962798;28;20031;-71
2024/01/04 00:25:38;;;;;;;1.27;0.40;;;6.60;99.90;;;;;;4983676;28;20034;-70
2024/01/04 00:28:04;;;;;;;4.70;0.65;;;6.60;99.90;;;;;;4972019;28;20027;-69
2024/01/04 00:30:30;;;;;;;3.47;0.68;;;6.60;99.90;;;;;;4979627;28;20035;-69
2024/01/04 00:32:55;;;;;;;5.53;1.40;;;6.60;99.90;;;;;;4963000;28;20449;-70
2024/01/04 00:35:22;;;;;;;4.30;0.75;;;6.60;99.90;;;;;;4948439;28;20421;-69
2024/01/04 00:37:48;;;;;;;5.93;1.02;;;6.50;99.90;;;;;;4960537;28;20030;-70
2024/01/04 00:40:14;;;;;;;5.63;0.63;;;6.60;99.90;;;;;;4965992;28;20023;-71
2024/01/04 00:42:39;;;;;;;3.42;0.73;;;6.60;99.90;;;;;;4965229;28;20369;-69
2024/01/04 00:45:05;;;;;;;3.72;0.47;;;6.60;99.90;;;;;;4963563;28;20027;-69
2024/01/04 00:47:32;;;;;;;4.78;0.95;;;6.70;99.90;;;;;;4962246;28;20111;-69
2024/01/04 00:49:57;;;;;;;3.05;0.60;;;6.60;99.90;;;;;;4964084;28;20439;-69
2024/01/04 00:52:23;;;;;;;6.65;1.02;;;6.60;99.90;;;;;;4967253;28;20094;-69
2024/01/04 00:54:49;;;;;;;4.35;1.02;;;6.60;99.90;;;;;;4961419;28;20406;-69
2024/01/04 00:57:15;;;;;;;3.65;0.63;;;6.50;99.90;;;;;;4965634;28;20029;-69
2024/01/04 00:59:41;;;;;;;2.05;0.70;;;6.50;99.90;;;;;;4963421;28;20412;-69
2024/01/04 01:02:06;;;;;;;5.30;0.65;;;6.50;99.90;;;;;;4961949;28;20512;-69
2024/01/04 01:04:32;;;;;;;4.53;0.90;;;6.60;99.90;;;;;;4965016;28;20035;-69
2024/01/04 01:06:57;;;;;;;9.20;0.70;;;6.60;99.90;;;;;;4965007;28;20042;-69
2024/01/04 01:09:23;;;;;;;4.30;0.70;;;6.50;99.90;;;;;;4962098;28;20019;-69
2024/01/04 01:11:49;;;;;;;3.22;0.60;;;6.50;99.90;;;;;;4964920;28;20039;-69
2024/01/04 01:14:14;;;;;;;5.03;0.95;;;6.40;99.90;;;;;;4962752;28;20028;-69
2024/01/04 01:16:40;;;;;;;8.50;1.00;;;6.30;99.90;;;;;;4965301;28;20199;-69
2024/01/04 01:19:05;;;;;;;6.18;0.90;;;6.40;99.90;;;;;;4963839;28;20031;-69
2024/01/04 01:21:31;;;;;;;4.40;1.00;;;6.30;99.90;;;;;;4961904;28;20039;-69
2024/01/04 01:23:57;;;;;;;6.28;1.45;;;6.30;99.90;;;;;;4963209;28;20054;-70
2024/01/04 01:26:22;;;;;;;7.25;1.00;;;6.30;99.90;;;;;;4965027;28;20059;-69
2024/01/04 01:28:48;;;;;;;3.55;0.70;;;6.30;99.90;;;;;;4960031;28;20031;-69
2024/01/04 01:31:15;;;;;;;6.15;0.88;;;6.20;99.90;;;;;;4965713;28;20031;-69
2024/01/04 01:33:45;;;;;;;5.45;0.70;;;6.20;99.90;;;;;;4963302;28;20051;-69
2024/01/04 01:36:10;;;;;;;5.03;0.68;;;6.30;99.90;;;;;;4962687;28;20031;-69
2024/01/04 01:38:36;;;;;;;5.43;1.20;;;6.30;99.90;;;;;;4965002;28;20031;-70
2024/01/04 01:41:02;;;;;;;4.10;0.75;;;6.30;99.90;;;;;;4963820;28;20035;-69
2024/01/04 01:43:27;;;;;;;4.10;0.77;;;6.20;99.90;;;;;;4962817;28;20074;-69
2024/01/04 01:45:53;;;;;;;1.70;0.45;;;6.30;99.90;;;;;;4960596;28;20027;-69
2024/01/04 01:48:19;;;;;;;4.65;0.80;;;6.40;99.90;;;;;;4963659;28;20081;-69
2024/01/04 01:50:45;;;;;;;3.22;0.60;;;6.30;99.90;;;;;;4964742;28;20026;-69
2024/01/04 01:53:11;;;;;;;6.88;1.02;;;6.30;99.90;;;;;;4962368;28;20050;-69
2024/01/04 01:55:37;;;;;;;3.10;0.50;;;6.30;99.90;;;;;;4964627;28;20761;-69
2024/01/04 01:58:04;;;;;;;3.35;0.70;;;6.30;99.90;;;;;;4961601;28;20023;-70
2024/01/04 02:00:31;;;;;;;4.45;0.60;;;6.30;99.90;;;;;;4965877;28;20029;-70
2024/01/04 02:02:57;;;;;;;4.20;0.50;;;6.40;99.90;;;;;;4952158;28;20441;-70
2024/01/04 02:05:22;;;;;;;2.53;0.50;;;6.40;99.90;;;;;;4961062;28;20107;-70
2024/01/04 02:07:48;;;;;;;1.27;0.20;;;6.50;99.90;;;;;;4963034;28;20082;-68
2024/01/04 02:10:14;;;;;;;1.33;0.40;;;6.40;99.90;;;;;;4964994;28;20023;-70
2024/01/04 02:12:40;;;;;;;0.95;0.17;;;6.30;99.90;;;;;;4968605;28;20034;-70
2024/01/04 02:15:07;;;;;;;0.57;0.10;;;6.30;99.90;;;;;;4963620;28;20225;-69
2024/01/04 02:17:33;;;;;;;3.45;0.30;;;6.20;99.90;;;;;;4971582;28;20058;-69
2024/01/04 02:19:59;;;;;;;1.05;0.30;;;6.20;99.90;;;;;;4969859;28;20583;-69
2024/01/04 02:22:25;;;;;;;2.55;0.40;;;6.10;99.90;;;;;;4957132;28;20138;-69
2024/01/04 02:24:50;;;;;;;2.95;0.30;;;6.10;99.90;;;;;;4959103;28;20035;-68
2024/01/04 02:27:17;;;;;;;0.30;0.30;;;6.10;99.90;;;;;;4966288;28;20034;-69
2024/01/04 02:29:43;;;;;;;1.08;0.15;;;6.10;99.90;;;;;;4967050;28;20571;-70
2024/01/04 02:32:08;;;;;;;0.20;0.20;;;6.10;99.90;;;;;;4968046;28;20098;-70
2024/01/04 02:34:34;;;;;;;1.65;0.10;;;6.10;99.90;;;;;;4962713;28;20042;-70
2024/01/04 02:37:00;;;;;;;0.22;0.08;;;6.10;99.90;;;;;;4969067;28;20107;-70
2024/01/04 02:39:25;;;;;;;1.85;0.10;;;6.10;99.90;;;;;;4961586;28;20135;-70
2024/01/04 02:41:51;;;;;;;0.68;0.10;;;6.20;99.90;;;;;;4960577;28;20388;-70
2024/01/04 02:44:16;;;;;;;1.08;0.15;;;6.20;99.90;;;;;;4964007;28;20032;-69
2024/01/04 02:46:42;;;;;;;0.13;0.03;;;6.20;99.90;;;;;;4971844;28;20046;-70
2024/01/04 02:49:08;;;;;;;1.20;0.10;;;6.10;99.90;;;;;;4960538;28;20057;-70
2024/01/04 02:51:33;;;;;;;2.10;0.20;;;6.10;99.90;;;;;;4964928;28;20111;-70
2024/01/04 02:53:59;;;;;;;0.60;0.15;;;6.10;99.90;;;;;;4964819;28;20034;-70
2024/01/04 02:56:25;;;;;;;0.75;0.00;;;6.20;99.90;;;;;;4967071;28;20027;-70
2024/01/04 02:58:50;;;;;;;0.40;0.17;;;6.10;99.90;;;;;;4955725;28;20028;-69
2024/01/04 03:01:22;;;;;;;2.38;0.10;;;6.20;99.90;;;;;;4965155;28;20089;-70
2024/01/04 03:03:52;;;;;;;1.45;0.10;;;6.10;99.90;;;;;;4965538;28;20484;-69
2024/01/04 03:06:27;;;;;;;0.70;0.20;;;6.20;99.90;;;;;;4956789;28;20103;-70
2024/01/04 03:08:53;;;;;;;0.50;0.03;;;6.20;99.90;;;;;;4960752;28;20138;-69
2024/01/04 03:11:19;;;;;;;1.40;0.10;;;6.20;99.90;;;;;;4968299;28;20479;-69
2024/01/04 03:13:46;;;;;;;0.77;0.03;;;6.30;99.90;;;;;;4971525;28;20031;-70
2024/01/04 03:16:12;;;;;;;0.10;0.03;;;6.30;99.90;;;;;;4962118;28;20148;-70
2024/01/04 03:18:38;;;;;;;3.80;0.20;;;6.30;99.90;;;;;;4963878;28;20469;-70
2024/01/04 03:21:05;;;;;;;1.55;0.10;;;6.40;99.90;;;;;;4952977;28;20035;-70
2024/01/04 03:23:30;;;;;;;1.65;0.20;;;6.40;99.90;;;;;;4963522;28;20122;-70
2024/01/04 03:25:56;;;;;;;0.38;0.10;;;6.40;99.90;;;;;;4959156;28;20105;-69
2024/01/04 03:28:22;;;;;;;1.85;0.17;;;6.30;99.90;;;;;;4965084;28;20032;-70
2024/01/04 03:30:47;;;;;;;1.02;0.08;;;6.40;99.90;;;;;;4963084;28;20035;-69
2024/01/04 03:33:13;;;;;;;3.20;0.10;;;6.40;99.90;;;;;;4958540;28;20487;-69
2024/01/04 03:35:38;;;;;;;2.85;0.10;;;6.40;99.90;;;;;;4961570;28;20102;-70
2024/01/04 03:38:04;;;;;;;0.50;0.03;;;6.30;99.90;;;;;;4964789;28;21147;-70
2024/01/04 03:40:30;;;;;;;0.43;0.10;;;6.30;99.90;;;;;;4955708;28;20061;-70
2024/01/04 03:42:55;;;;;;;2.65;0.28;;;6.30;99.90;;;;;;4960429;28;20117;-69
2024/01/04 03:45:21;;;;;;;1.90;0.20;;;6.30;99.90;;;;;;4968393;28;20110;-69
2024/01/04 03:47:48;;;;;;;1.52;0.32;;;6.20;99.90;;;;;;4969726;28;20082;-69
2024/01/04 03:50:13;;;;;;;2.65;0.20;;;6.20;99.90;;;;;;4959690;28;20031;-70
2024/01/04 03:52:39;;;;;;;3.30;0.10;;;6.20;99.90;;;;;;4968541;28;20373;-70
2024/01/04 03:55:05;;;;;;;2.88;0.15;;;6.20;99.90;;;;;;4968898;28;20138;-70
2024/01/04 03:57:31;;;;;;;0.40;0.10;;;6.20;99.90;;;;;;4965992;28;20480;-70
2024/01/04 03:59:57;;;;;;;4.32;0.73;;;6.30;99.90;;;;;;4967112;28;20043;-69
2024/01/04 04:02:22;;;;;;;1.50;0.20;;;6.20;99.90;;;;;;4956975;28;20038;-70
2024/01/04 04:04:49;;;;;;;2.10;0.25;;;6.20;99.90;;;;;;4962012;28;20039;-69
2024/01/04 04:07:15;;;;;;;3.20;0.28;;;6.20;99.90;;;;;;4968836;28;20110;-70
2024/01/04 04:09:40;;;;;;;3.58;0.38;;;6.30;99.90;;;;;;4960391;28;20434;-70
2024/01/04 04:12:06;;;;;;;2.30;0.20;;;6.50;99.90;;;;;;4957494;28;20635;-70
2024/01/04 04:14:34;;;;;;;1.77;0.20;;;6.50;99.90;;;;;;4968172;28;20031;-69
2024/01/04 04:17:00;;;;;;;6.88;0.60;;;6.60;99.90;;;;;;4973614;28;20113;-69
2024/01/04 04:19:28;;;;;;;2.42;0.30;;;6.60;99.90;;;;;;4971566;28;20130;-69
2024/01/04 04:21:54;;;;;;;2.28;0.32;;;6.60;99.90;;;;;;4964651;28;20035;-69
2024/01/04 04:24:19;;;;;;;2.95;0.40;;;6.60;99.90;;;;;;4959779;28;20110;-70
2024/01/04 04:26:45;;;;;;;3.05;0.30;;;6.70;99.90;;;;;;4972067;28;20094;-70
2024/01/04 04:29:10;;;;;;;7.38;0.30;;;6.70;99.90;;;;;;4964448;28;20039;-70
2024/01/04 04:31:36;;;;;;;2.05;0.30;;;6.70;99.90;;;;;;4969402;28;20053;-70
2024/01/04 04:34:02;;;;;;;3.65;0.47;;;6.80;99.90;;;;;;4968375;28;20539;-70
2024/01/04 04:36:27;;;;;;;1.67;0.68;;;6.80;99.90;;;;;;4969027;28;20093;-70
2024/01/04 04:38:53;;;;;;;2.97;0.40;;;6.90;99.90;;;;;;4964519;28;20023;-70
2024/01/04 04:41:18;;;;;;;4.85;0.68;;;6.90;99.90;;;;;;4961497;28;20476;-69
2024/01/04 04:43:44;;;;;;;3.58;0.43;;;7.00;99.90;;;;;;4962086;28;20079;-70
2024/01/04 04:46:11;;;;;;;4.00;0.55;;;7.00;99.90;;;;;;4969745;28;20031;-70
2024/01/04 04:48:37;;;;;;;3.50;0.68;;;7.10;99.90;;;;;;4971466;28;20030;-70
2024/01/04 04:51:02;;;;;;;5.15;0.60;;;7.10;99.90;;;;;;4966021;28;20035;-70
2024/01/04 04:53:28;;;;;;;4.22;0.57;;;7.20;99.90;;;;;;4969101;28;20023;-70
2024/01/04 04:55:54;;;;;;;5.13;0.75;;;7.10;99.90;;;;;;4970646;28;20527;-70
2024/01/04 04:58:19;;;;;;;3.63;0.50;;;7.00;99.90;;;;;;4959300;28;20034;-70
2024/01/04 05:00:45;;;;;;;7.00;0.40;;;6.90;99.90;;;;;;4967090;28;20491;-70
2024/01/04 05:03:10;;;;;;;6.22;0.98;;;6.80;99.90;;;;;;4970517;28;20114;-70
2024/01/04 05:05:36;;;;;;;3.30;0.50;;;6.80;99.90;;;;;;4961971;28;20039;-70
2024/01/04 05:08:03;;;;;;;2.42;0.32;;;6.80;99.90;;;;;;4961605;28;20476;-70
2024/01/04 05:10:28;;;;;;;2.83;0.50;;;6.80;99.90;;;;;;4967533;28;20136;-70
2024/01/04 05:12:54;;;;;;;5.57;0.47;;;6.80;99.90;;;;;;4972505;28;20464;-69
2024/01/04 05:15:19;;;;;;;4.18;0.52;;;6.80;99.90;;;;;;4960686;28;20066;-70
2024/01/04 05:17:45;;;;;;;3.25;0.55;;;6.80;99.90;;;;;;4970861;28;20441;-70
2024/01/04 05:20:12;;;;;;;6.35;0.85;;;6.80;99.90;;;;;;4970552;28;20035;-70
2024/01/04 05:22:39;;;;;;;5.40;0.57;;;6.80;99.90;;;;;;4969840;28;20074;-71
2024/01/04 05:25:05;;;;;;;2.38;0.68;;;6.80;99.90;;;;;;4960279;28;20077;-70
2024/01/04 05:27:31;;;;;;;4.93;0.77;;;6.70;99.90;;;;;;4968826;28;20094;-70
2024/01/04 05:29:56;;;;;;;6.18;0.70;;;6.70;99.90;;;;;;4969927;28;20023;-70
2024/01/04 05:32:22;;;;;;;3.92;0.50;;;6.70;99.90;;;;;;4957885;28;20031;-70
2024/01/04 05:34:47;;;;;;;1.95;0.45;;;6.60;99.90;;;;;;4967010;28;20023;-69
2024/01/04 05:37:13;;;;;;;3.67;0.38;;;6.60;99.90;;;;;;4967399;28;20038;-70
2024/01/04 05:39:39;;;;;;;4.60;0.88;;;6.60;99.90;;;;;;4963696;28;20027;-70
2024/01/04 05:42:05;;;;;;;1.73;0.40;;;6.60;99.90;;;;;;4962013;28;20593;-70
2024/01/04 05:44:30;;;;;;;4.10;1.08;;;6.50;99.90;;;;;;4966005;28;20027;-70
2024/01/04 05:46:56;;;;;;;8.40;0.70;;;6.50;99.90;;;;;;4960360;28;20114;-70
2024/01/04 05:49:22;;;;;;;5.38;0.95;;;6.40;99.90;;;;;;4963956;28;20031;-70
2024/01/04 05:51:47;;;;;;;3.17;0.85;;;6.40;99.90;;;;;;4963892;28;20026;-69
2024/01/04 05:54:13;;;;;;;3.15;0.85;;;6.30;99.90;;;;;;4962660;28;20030;-70
2024/01/04 05:56:39;;;;;;;4.57;0.70;;;6.40;99.90;;;;;;4960887;28;20465;-70
2024/01/04 05:59:04;;;;;;;3.95;0.80;;;6.40;99.90;;;;;;4963610;28;20023;-70
2024/01/04 06:01:30;;;;;;;0.95;0.35;;;6.40;99.90;;;;;;4962633;28;20067;-70
2024/01/04 06:03:55;;;;;;;6.00;0.70;;;6.40;99.90;;;;;;4961647;28;20023;-70
2024/01/04 06:06:21;;;;;;;2.10;0.52;;;6.50;99.90;;;;;;4963253;28;20026;-70
2024/01/04 06:08:47;;;;;;;6.75;0.85;;;6.60;99.90;;;;;;4960951;28;20039;-70
2024/01/04 06:11:13;;;;;;;2.72;0.60;;;6.50;99.90;;;;;;4966868;28;20472;-70
2024/01/04 06:13:38;;;;;;;2.33;0.70;;;6.60;99.90;;;;;;4960324;28;20034;-69
2024/01/04 06:16:07;;;;;;;2.67;0.50;;;6.60;99.90;;;;;;4963313;28;20182;-70
2024/01/04 06:18:34;;;;;;;1.73;0.50;;;6.60;99.90;;;;;;4965655;28;20030;-70
2024/01/04 06:21:00;;;;;;;2.95;0.57;;;6.60;99.90;;;;;;4962446;28;20035;-70
2024/01/04 06:23:27;;;;;;;3.58;0.65;;;6.70;99.90;;;;;;4963757;28;20026;-70
2024/01/04 06:25:52;;;;;;;5.50;0.70;;;6.80;99.90;;;;;;4962253;28;20026;-69
2024/01/04 06:28:18;;;;;;;6.03;0.70;;;6.70;99.90;;;;;;4964445;28;20029;-70
2024/01/04 06:30:44;;;;;;;4.43;0.70;;;6.70;99.90;;;;;;4962102;28;20033;-70
2024/01/04 06:33:09;;;;;;;3.00;0.63;;;6.80;99.90;;;;;;4963033;28;20082;-70
2024/01/04 06:35:35;;;;;;;2.33;0.55;;;6.70;99.90;;;;;;4963759;28;20027;-70
2024/01/04 06:38:03;;;;;;;2.60;0.60;;;6.70;99.90;;;;;;4961826;28;20034;-71
2024/01/04 06:40:29;;;;;;;3.55;0.80;;;6.70;99.90;;;;;;4962853;28;20097;-70
2024/01/04 06:42:55;;;;;;;4.22;0.52;;;6.70;99.90;;;;;;4960166;28;20030;-70
2024/01/04 06:45:22;;;;;;;3.85;0.70;;;6.70;99.90;;;;;;4963155;28;20054;-70
2024/01/04 06:47:48;;;;;;;4.85;0.55;;;6.70;99.90;;;;;;4960492;28;20094;-70
2024/01/04 06:50:14;;;;;;;5.22;0.70;;;6.60;99.90;;;;;;4962349;28;20398;-70
2024/01/04 06:52:39;;;;;;;3.75;1.02;;;6.70;99.90;;;;;;4963620;28;20495;-70
2024/01/04 06:55:05;;;;;;;2.78;0.60;;;6.80;99.90;;;;;;4960080;28;20086;-70
2024/01/04 06:57:31;;;;;;;5.57;0.88;;;6.80;99.90;;;;;;4971590;28;20030;-70
2024/01/04 06:59:56;;;;;;;7.55;1.48;;;6.80;99.90;;;;;;4959001;28;20019;-70
2024/01/04 07:02:22;;;;;;;4.57;0.68;;;6.90;99.90;;;;;;4963027;28;20070;-70
2024/01/04 07:04:47;;;;;;;4.85;0.90;;;6.90;99.90;;;;;;4965839;28;20027;-69
2024/01/04 07:07:13;;;;;;;4.65;1.20;;;6.90;99.90;;;;;;4969952;28;20053;-70
2024/01/04 07:09:39;;;;;;;2.65;0.70;;;6.90;99.90;;;;;;4970185;28;20031;-70
2024/01/04 07:12:06;;;;;;;3.63;0.93;;;6.90;99.90;;;;;;4953287;28;20196;-70
2024/01/04 07:14:31;;;;;;;7.07;1.05;;;7.00;99.90;;;;;;4966763;28;20045;-70
2024/01/04 07:16:57;;;;;;;3.03;0.90;;;7.00;99.90;;;;;;4967388;28;20051;-69
2024/01/04 07:19:23;;;;;;;4.50;0.75;;;7.00;99.90;;;;;;4971180;28;20053;-70
2024/01/04 07:21:48;;;;;;;4.85;0.90;;;7.10;99.90;;;;;;4964796;28;20046;-69
2024/01/04 07:24:16;;;;;;;4.43;0.70;;;7.00;99.90;;;;;;4965261;28;20027;-70
2024/01/04 07:26:41;;;;;;;3.28;0.70;;;7.10;99.90;;;;;;4955872;28;20481;-70
2024/01/04 07:29:07;;;;;;;4.28;0.77;;;7.10;99.90;;;;;;4962090;28;20023;-70
2024/01/04 07:31:32;;;;;;;7.68;0.70;;;7.10;99.90;;;;;;4967985;28;20369;-70
2024/01/04 07:33:59;;;;;;;2.17;0.57;;;7.10;99.90;;;;;;4963566;28;20031;-69
2024/01/04 07:36:25;;;;;;;2.33;0.30;;;7.10;99.90;;;;;;4966669;28;20547;-70
2024/01/04 07:38:51;;;;;;;4.00;0.73;;;7.00;99.90;;;;;;4964828;28;20030;-69
2024/01/04 07:41:17;;;;;;;4.53;0.98;;;7.00;99.90;;;;;;4970908;28;20093;-70
2024/01/04 07:43:42;;;;;;;6.28;1.17;;;7.00;99.90;;;;;;4960475;28;20058;-70
2024/01/04 07:46:08;;;;;;;3.70;0.40;;;6.90;99.90;;;;;;4962022;28;20156;-70
2024/01/04 07:48:33;;;;;;;1.10;0.35;;;6.90;99.90;;;;;;4970754;28;20054;-70
2024/01/04 07:50:59;;;;;;;3.63;0.50;;;6.90;99.90;;;;;;4972339;28;20042;-70
2024/01/04 07:53:25;;;;;;;2.78;0.68;;;6.90;99.90;;;;;;4965266;28;20464;-70
2024/01/04 07:55:50;;;;;;;2.42;0.65;;;6.80;99.90;;;;;;4967702;28;20046;-69
2024/01/04 07:58:16;;;;;;;2.05;0.40;;;6.80;99.90;;;;;;4967177;28;20366;-70
2024/01/04 08:00:41;;;;;;;4.07;0.82;;;6.70;99.90;;;;;;4963073;28;20023;-70
2024/01/04 08:03:07;;;;;;;2.58;0.47;;;6.70;99.90;;;;;;4971563;28;20043;-70
2024/01/04 08:05:32;;;;;;;5.95;0.75;;;6.70;99.90;;;;;;4967474;28;20097;-70
2024/01/04 08:07:58;;;;;;;5.18;0.80;;;6.70;99.90;;;;;;4961916;28;20031;-70
2024/01/04 08:10:23;;;;;;;4.00;0.85;;;6.70;99.90;;;;;;4969578;28;20027;-70
2024/01/04 08:12:49;;;;;;;4.03;0.55;;;6.70;99.90;;;;;;4959125;28;20159;-69
2024/01/04 08:15:15;;;;;;;10.65;1.30;;;6.60;99.90;;;;;;4969074;28;20027;-70
2024/01/04 08:17:41;;;;;;;5.80;0.70;;;6.60;99.90;;;;;;4971171;28;20062;-70
2024/01/04 08:20:06;;;;;;;2.17;0.73;;;6.50;99.90;;;;;;4972624;28;20026;-70
2024/01/04 08:22:32;;;;;;;5.63;0.90;;;6.50;99.90;;;;;;4968266;28;20047;-70
2024/01/04 08:24:57;;;;;;;5.90;1.60;;;6.60;99.90;;;;;;4971321;28;20115;-70
2024/01/04 08:27:23;;;;;;;2.80;0.50;;;6.60;99.90;;;;;;4963927;28;20401;-70
2024/01/04 08:29:49;;;;;;;8.68;0.65;;;6.50;99.90;;;;;;4965359;28;20037;-69
2024/01/04 08:32:16;;;;;;;5.00;1.00;;;6.50;99.90;;;;;;4972183;28;20081;-69
2024/01/04 08:34:42;;;;;;;4.50;0.80;;;6.40;99.90;;;;;;4955574;28;20456;-70
2024/01/04 08:37:08;;;;;;;7.57;0.73;;;6.40;99.90;;;;;;4966257;28;20035;-68
2024/01/04 08:39:33;;;;;;;6.18;0.95;;;6.50;99.90;;;;;;4972949;28;20054;-69
2024/01/04 08:41:59;;;;;;;5.28;0.80;;;6.50;99.90;;;;;;4967270;28;20469;-69
2024/01/04 08:44:25;;;;;;;5.43;1.17;;;6.50;99.90;;;;;;4973241;28;20107;-69
2024/01/04 08:46:52;;;;;;;10.25;1.23;;;6.60;99.90;;;;;;4959204;28;20039;-69
2024/01/04 08:49:18;;;;;;;7.28;1.00;;;6.70;99.90;;;;;;4971529;28;20038;-69
2024/01/04 08:51:43;;;;;;;3.38;0.85;;;6.70;99.90;;;;;;4965808;28;20100;-69
2024/01/04 08:54:10;;;;;;;4.75;1.17;;;6.80;99.90;;;;;;4971289;28;20527;-68
2024/01/04 08:56:36;;;;;;;9.18;1.02;;;6.90;99.90;;;;;;4964371;28;20023;-69
2024/01/04 08:59:02;;;;;;;4.05;0.70;;;7.10;99.90;;;;;;4974504;28;20042;-70
2024/01/04 09:01:28;;;;;;;3.67;0.85;;;7.30;99.90;;;;;;4977992;28;20091;-70
2024/01/04 09:03:54;;;;;;;9.07;1.23;;;7.40;99.90;;;;;;4970211;28;20027;-68
2024/01/04 09:06:20;;;;;;;5.00;0.70;;;7.60;99.90;;;;;;4972859;28;20486;-69
2024/01/04 09:08:46;;;;;;;4.90;0.73;;;7.80;99.90;;;;;;4965540;28;20069;-69
2024/01/04 09:11:11;;;;;;;2.30;0.70;;;7.90;99.90;;;;;;4959888;28;20437;-68
2024/01/04 09:13:37;;;;;;;6.13;1.13;;;8.00;99.90;;;;;;4970217;28;20042;-69
2024/01/04 09:16:03;;;;;;;2.45;0.52;;;8.10;99.90;;;;;;4965185;28;20047;-69
2024/01/04 09:18:29;;;;;;;5.85;0.82;;;8.20;99.90;;;;;;4959058;28;20564;-68
2024/01/04 09:20:54;;;;;;;3.17;0.50;;;8.30;99.90;;;;;;4971616;28;20031;-72
2024/01/04 09:23:20;;;;;;;4.03;0.50;;;8.30;99.90;;;;;;4970225;28;20074;-69
2024/01/04 09:25:45;;;;;;;6.45;1.08;;;8.30;99.90;;;;;;4971982;28;20027;-70
2024/01/04 09:28:11;;;;;;;4.18;0.95;;;8.20;99.90;;;;;;4971203;28;20070;-70
2024/01/04 09:30:36;;;;;;;2.50;0.60;;;8.30;99.90;;;;;;4971157;28;20037;-71
2024/01/04 09:33:02;;;;;;;2.30;0.68;;;8.30;99.90;;;;;;4969836;28;20030;-70
2024/01/04 09:35:28;;;;;;;4.68;0.80;;;8.30;99.90;;;;;;4959376;28;20030;-69
2024/01/04 09:37:53;;;;;;;3.70;0.85;;;8.30;99.90;;;;;;4964600;28;20027;-71
2024/01/04 09:40:20;;;;;;;3.25;0.60;;;8.20;99.90;;;;;;4969976;28;20086;-71
2024/01/04 09:42:47;;;;;;;5.40;0.85;;;8.20;99.90;;;;;;4960687;28;20457;-70
2024/01/04 09:45:18;;;;;;;6.70;0.70;;;8.40;99.90;;;;;;4964269;28;20121;-70
2024/01/04 09:47:44;;;;;;;;;;;8.40;99.90;;;;;;4968639;28;20055;-69
2024/01/04 09:50:12;;;;;;;4.00;0.70;;;8.50;99.90;;;;;;4955011;28;20493;-69
2024/01/04 09:52:39;;;;;;;6.20;0.95;;;8.70;99.90;;;;;;4949999;28;20452;-69
2024/01/04 09:55:07;;;;;;;2.67;0.68;;;8.80;99.90;;;;;;4971276;28;20027;-70
2024/01/04 09:57:33;;;;;;;3.53;0.85;;;8.90;99.90;;;;;;4971022;28;20022;-71
2024/01/04 09:59:59;;;;;;;5.50;0.70;;;9.10;99.90;;;;;;4961443;28;20045;-71
2024/01/04 10:02:25;;;;;;;4.60;0.88;;;9.20;99.90;;;;;;4953111;28;20035;-71
2024/01/04 10:04:51;;;;;;;2.30;0.80;;;9.30;99.90;;;;;;4969170;28;20042;-68
2024/01/04 10:07:24;;;;;;;5.22;0.70;;;9.20;99.90;;;;;;4968746;28;20054;-69
2024/01/04 10:10:01;;;;;;;7.43;1.00;;;9.20;99.90;;;;;;4960368;28;20094;-68
2024/01/04 10:12:32;;;;;;;4.22;0.90;;;9.20;99.90;;;;;;4953901;28;20035;-69
2024/01/04 10:14:58;;;;;;;6.43;0.73;;;9.20;99.90;;;;;;4962240;28;20046;-69
2024/01/04 10:17:24;;;;;;;4.85;0.88;;;9.30;99.90;;;;;;4956264;28;20059;-69
2024/01/04 10:19:50;;;;;;;4.90;1.08;;;9.30;99.90;;;;;;4952989;28;20035;-70
2024/01/04 10:22:21;;;;;;;2.85;0.63;;;9.30;99.90;;;;;;4968208;28;20050;-68
2024/01/04 10:24:47;;;;;;;3.47;0.80;;;9.20;99.90;;;;;;4959522;28;20055;-69
2024/01/04 10:27:15;;;;;;;3.25;0.95;;;9.10;99.90;;;;;;4967170;28;20066;-68
2024/01/04 10:29:43;;;;;;;7.05;1.25;;;9.10;99.90;;;;;;4966393;28;20106;-69
2024/01/04 10:32:13;;;;;;;3.25;0.60;;;9.10;99.90;;;;;;4967384;28;20022;-69
2024/01/04 10:34:39;;;;;;;3.47;0.90;;;9.00;99.90;;;;;;4971440;28;20030;-69
2024/01/04 10:37:09;;;;;;;4.90;1.00;;;8.70;99.90;;;;;;4969362;28;20461;-70
2024/01/04 10:39:36;;;;;;;3.08;0.70;;;8.30;99.90;;;;;;4966330;28;20126;-72
2024/01/04 10:42:02;;;;;;;3.60;0.90;;;8.10;99.90;;;;;;4956408;28;20101;-70
2024/01/04 10:44:28;;;;;;;2.88;0.60;;;8.00;99.90;;;;;;4970260;28;20035;-70
2024/01/04 10:46:55;;;;;;;4.22;0.57;;;7.90;99.90;;;;;;4969928;28;20031;-70
2024/01/04 10:49:24;;;;;;;3.90;0.98;;;8.00;99.90;;;;;;4970338;28;20042;-70
2024/01/04 10:51:52;;;;;;;5.35;0.73;;;7.90;99.90;;;;;;4966548;28;20042;-69
2024/01/04 10:54:19;;;;;;;1.73;0.55;;;7.90;99.90;;;;;;4953779;28;20031;-70
2024/01/04 10:56:45;;;;;;;1.52;0.73;;;7.80;99.90;;;;;;4970844;28;20023;-71
2024/01/04 10:59:12;;;;;;;2.97;0.70;;;7.60;99.90;;;;;;4966145;28;20054;-69
2024/01/04 11:01:41;;;;;;;5.55;1.00;;;7.40;99.90;;;;;;4954409;28;20050;-70
2024/01/04 11:04:07;;;;;;;2.50;0.68;;;7.30;99.90;;;;;;4951619;28;20058;-70
2024/01/04 11:06:40;;;;;;;3.00;0.38;;;7.20;99.90;;;;;;4957842;28;20085;-71
2024/01/04 11:09:09;;;;;;;2.45;0.47;;;7.30;99.90;;;;;;4966440;28;20035;-71
2024/01/04 11:11:35;;;;;;;1.55;0.47;;;7.30;99.90;;;;;;4955982;28;20032;-70
2024/01/04 11:14:02;;;;;;;1.48;0.40;;;7.40;99.90;;;;;;4963205;28;20035;-70
2024/01/04 11:16:37;;;;;;;1.38;0.50;;;7.60;99.90;;;;;;4964278;28;20803;-70
2024/01/04 11:19:21;;;;;;;3.80;0.60;;;7.70;99.90;;;;;;4965944;28;20034;-70
2024/01/04 11:22:00;;;;;;;5.32;1.10;;;7.80;99.90;;;;;;4966320;28;20035;-70
2024/01/04 11:24:44;;;;;;;2.63;1.10;;;7.80;99.90;;;;;;4964222;28;20027;-71
2024/01/04 11:27:14;;;;;;;3.53;0.55;;;7.80;99.90;;;;;;4957732;28;20034;-71
2024/01/04 11:29:41;;;;;;;3.85;0.65;;;8.00;99.90;;;;;;4965586;28;20054;-70
2024/01/04 11:32:07;;;;;;;3.55;0.68;;;8.10;99.90;;;;;;4961008;28;20768;-71
2024/01/04 11:34:33;;;;;;;3.08;0.70;;;8.30;99.90;;;;;;4965808;28;20031;-71
2024/01/04 11:37:16;;;;;;;5.60;1.40;;;8.50;99.90;;;;;;4959998;28;20046;-71
2024/01/04 11:39:54;;;;;;;6.70;0.70;;;8.80;99.90;;;;;;4967400;28;20039;-70
2024/01/04 11:42:20;;;;;;;3.35;1.00;;;9.10;99.90;;;;;;4960663;28;20039;-71
2024/01/04 11:44:50;;;;;;;5.05;0.75;;;9.40;99.90;;;;;;4958207;28;20031;-71
2024/01/04 11:47:15;;;;;;;5.10;0.90;;;9.60;99.90;;;;;;4966274;28;20062;-71
2024/01/04 11:49:47;;;;;;;3.63;0.80;;;9.70;99.90;;;;;;4976175;28;20069;-69
2024/01/04 11:52:15;;;;;;;3.92;0.60;;;9.50;99.90;;;;;;4955487;28;20484;-73
2024/01/04 11:54:41;;;;;;;3.05;0.60;;;9.20;99.90;;;;;;4953763;28;20034;-72
2024/01/04 11:57:17;;;;;;;2.65;0.60;;;8.80;99.90;;;;;;4967665;28;20218;-72
2024/01/04 11:59:43;;;;;;;2.08;0.47;;;8.30;99.90;;;;;;4972581;28;20025;-71
2024/01/04 12:02:19;;;;;;;4.05;0.85;;;7.90;99.90;;;;;;4966041;28;20640;-70
2024/01/04 12:04:45;;;;;;;3.08;0.70;;;7.50;99.90;;;;;;4956083;28;20030;-70
2024/01/04 12:07:11;;;;;;;5.63;1.20;;;7.20;99.90;;;;;;4956780;28;20631;-70
2024/01/04 12:09:38;;;;;;;5.38;0.75;;;7.20;99.90;;;;;;4968266;28;20027;-71
2024/01/04 12:12:04;;;;;;;3.35;0.90;;;7.10;99.90;;;;;;4954520;28;20485;-72
2024/01/04 12:14:29;;;;;;;5.63;0.95;;;7.10;99.90;;;;;;4958486;28;20049;-71
2024/01/04 12:16:57;;;;;;;4.55;0.90;;;7.00;99.90;;;;;;4965512;28;20500;-69
2024/01/04 12:19:23;;;;;;;3.97;0.90;;;6.90;99.90;;;;;;4970875;28;20043;-70
2024/01/04 12:21:49;;;;;;;6.45;1.00;;;7.00;99.90;;;;;;4959268;28;20538;-70
2024/01/04 12:24:14;;;;;;;3.40;0.65;;;7.00;99.90;;;;;;4960658;28;20031;-70
2024/01/04 12:26:40;;;;;;;3.97;0.77;;;7.20;99.90;;;;;;4969012;28;20019;-70
2024/01/04 12:29:07;;;;;;;6.57;1.05;;;7.30;99.90;;;;;;4959146;28;20081;-70
2024/01/04 12:31:34;;;;;;;4.05;1.08;;;7.40;99.90;;;;;;4962660;28;20031;-70
2024/01/04 12:34:00;;;;;;;3.42;0.82;;;7.50;99.90;;;;;;4965676;28;20045;-70
2024/01/04 12:36:26;;;;;;;1.77;0.68;;;7.60;99.90;;;;;;4968480;28;20023;-71
2024/01/04 12:39:05;;;;;;;2.85;0.65;;;7.70;99.90;;;;;;4957339;28;20039;-69
2024/01/04 12:41:31;;;;;;;9.00;1.20;;;7.80;99.90;;;;;;4957104;28;20513;-70
2024/01/04 12:43:57;;;;;;;10.45;0.90;;;7.90;99.90;;;;;;4967000;28;20270;-72
2024/01/04 12:46:23;;;;;;;6.07;0.80;;;8.10;99.90;;;;;;4969516;28;20032;-69
2024/01/04 12:48:52;;;;;;;5.28;1.20;;;8.20;99.90;;;;;;4959819;28;20106;-69
2024/01/04 12:51:27;;;;;;;6.15;0.85;;;8.40;99.90;;;;;;4964444;28;20426;-70
2024/01/04 12:53:53;;;;;;;8.27;1.38;;;8.50;99.90;;;;;;4967806;28;20027;-69